Latest Weather Observations for Hindmarsh Island

IDS60901

Issued at 11:21 pm CST Wednesday 23 August 2017 (issued every 10 minutes, with the page automatically refreshed every 10 minutes)

About weather observations | Map of Adelaide area stations | Latest observations for Adelaide area | Other Formats
Station Details ID: 023894 Name: HINDMARSH ISLAND AWS Lat: -35.52 Lon: 138.82 Height: 11.0 m
Data from the previous 72 hours. | See also: Recent months at Hindmarsh Island
Date/Time
CST
Temp
°C
App
Temp
°C
Dew
Point
°C
Rel
Hum
%
Delta-T
°C
Wind Press
QNH
hPa
Press
MSL
hPa
Rain since
9am
mm
Dir  Spd
km/h
Gust
km/h
Spd
kts
Gust
kts
23/11:00pm 11.3 7.0 7.2 76 2.0 WSW 19 26 10 14 1024.8 1024.8 0.8
23/10:30pm 10.8 7.7 7.1 78 1.8 W 13 20 7 11 1024.8 1024.8 0.8
23/10:00pm 10.3 7.0 6.6 78 1.7 WNW 13 17 7 9 1024.7 1024.7 0.8
23/09:30pm 11.8 6.0 6.3 69 2.6 SW 26 33 14 18 1024.5 1024.5 0.8
23/09:00pm 12.0 6.0 6.9 71 2.4 SW 28 35 15 19 1024.6 1024.6 0.8
23/08:30pm 11.7 6.1 7.2 74 2.1 SW 26 32 14 17 1024.3 1024.3 0.8
23/08:00pm 11.9 7.2 7.6 75 2.1 SSW 22 26 12 14 1024.0 1024.0 0.8
23/07:30pm 11.5 7.0 6.8 73 2.2 WSW 20 32 11 17 1023.7 1023.7 0.8
23/07:00pm 11.6 6.5 7.5 76 2.0 SW 24 37 13 20 1023.6 1023.6 0.8
23/06:30pm 12.3 6.5 6.4 67 2.8 SW 26 32 14 17 1023.3 1023.3 0.8
23/06:00pm 12.6 6.9 6.9 68 2.7 SW 26 35 14 19 1022.9 1022.9 0.8
23/05:30pm 12.7 7.3 6.5 66 2.9 SW 24 30 13 16 1022.7 1022.7 0.8
23/05:00pm 12.7 6.6 6.5 66 3.0 SW 28 35 15 19 1022.3 1022.3 0.8
23/04:30pm 13.3 7.3 7.1 66 3.0 SW 28 35 15 19 1022.0 1022.0 0.8
23/04:00pm 14.7 8.5 8.0 64 3.3 SW 30 39 16 21 1021.7 1021.7 0.8
23/03:30pm 14.2 8.3 7.7 65 3.2 SW 28 35 15 19 1021.5 1021.5 0.8
23/03:00pm 14.6 8.5 8.3 66 3.1 SW 30 35 16 19 1021.4 1021.4 0.8
23/02:30pm 14.7 8.4 8.9 68 2.9 SW 32 39 17 21 1021.1 1021.1 0.8
23/02:00pm 14.5 7.4 8.2 66 3.2 SW 35 43 19 23 1020.8 1020.8 0.8
23/01:30pm 14.4 7.1 8.8 69 2.8 SW 37 46 20 25 1020.7 1020.7 0.8
23/01:00pm 14.7 8.6 9.7 72 2.6 SW 32 41 17 22 1020.6 1020.6 0.8
23/12:30pm 14.2 7.9 9.6 74 2.4 SW 33 41 18 22 1020.7 1020.7 0.8
23/12:00pm 14.3 9.7 9.5 73 2.5 WSW 24 35 13 19 1020.7 1020.7 0.8
23/11:30am 14.4 9.9 10.2 76 2.2 W 24 35 13 19 1020.9 1020.9 0.8
23/11:00am 13.6 9.0 9.8 78 2.0 WNW 24 37 13 20 1021.0 1021.0 0.8
23/10:30am 13.1 7.7 9.4 78 1.9 WNW 28 37 15 20 1020.6 1020.6 0.8
23/10:00am 13.1 8.6 10.1 82 1.5 NW 24 32 13 17 1020.6 1020.6 0.6
23/09:30am 13.3 9.1 9.9 80 1.7 NW 22 32 12 17 1020.5 1020.5 0.4
23/09:00am 12.9 10.6 10.4 85 1.3 NW 13 17 7 9 1020.4 1020.4 1.0
23/08:30am 12.3 10.5 9.3 82 1.5 WNW 9 13 5 7 1020.3 1020.3 0.6
23/08:00am 12.6 8.1 8.7 77 1.9 WNW 22 32 12 17 1020.0 1020.0 0.0
23/07:30am 12.8 9.8 9.3 79 1.8 WNW 15 20 8 11 1019.9 1019.9 0.0
23/07:00am 12.1 8.1 8.9 81 1.6 NW 20 26 11 14 1019.7 1019.7 0.0
23/06:30am 11.8 6.9 8.6 81 1.6 NW 24 30 13 16 1019.5 1019.5 0.0
23/06:00am 11.8 7.7 8.6 81 1.6 WNW 20 28 11 15 1019.5 1019.5 0.0
23/05:30am 12.0 7.9 8.7 80 1.6 NW 20 28 11 15 1019.3 1019.3 0.0
23/05:00am 12.3 8.2 8.8 79 1.7 NW 20 24 11 13 1019.3 1019.3 0.0
23/04:30am 12.4 8.5 8.7 78 1.8 NW 19 24 10 13 1019.3 1019.3 0.0
23/04:00am 12.5 9.3 8.6 77 1.9 WNW 15 20 8 11 1019.5 1019.5 0.0
23/03:30am 12.5 9.3 8.6 77 1.9 NW 15 19 8 10 1019.6 1019.6 0.0
23/03:00am 12.6 9.1 8.7 77 1.9 WNW 17 24 9 13 1019.9 1019.9 0.0
23/02:30am 12.6 9.0 8.5 76 2.0 WNW 17 26 9 14 1020.0 1020.0 0.0
23/02:00am 12.1 9.5 7.8 75 2.1 NW 11 15 6 8 1020.1 1020.1 0.0
23/01:30am 12.1 9.6 8.0 76 2.0 NNW 11 13 6 7 1020.1 1020.1 0.0
23/01:00am 11.9 9.9 8.6 80 1.6 WNW 9 13 5 7 1020.2 1020.2 0.0
23/12:30am 12.1 8.9 8.4 78 1.8 W 15 20 8 11 1020.4 1020.4 0.0
23/12:00am 12.8 8.9 8.5 75 2.1 W 19 30 10 16 1020.6 1020.6 0.0
 
Date/Time
CST
Temp
°C
App
Temp
°C
Dew
Point
°C
Rel
Hum
%
Delta-T
°C
Wind Press
QNH
hPa
Press
MSL
hPa
Rain since
9am
mm
Dir  Spd
km/h
Gust
km/h
Spd
kts
Gust
kts
22/11:30pm 13.1 7.5 8.6 74 2.2 WNW 28 37 15 20 1020.5 1020.5 0.0
22/11:29pm 13.1 7.8 8.6 74 2.2 WNW 26 37 14 20 1020.5 1020.5 0.0
22/11:00pm 12.0 9.5 8.1 77 1.9 NW 11 13 6 7 1020.7 1020.7 0.0
22/10:30pm 11.8 8.8 7.9 77 1.9 NW 13 17 7 9 1020.8 1020.8 0.0
22/10:00pm 12.2 9.6 7.9 75 2.1 NNW 11 17 6 9 1020.7 1020.7 0.0
22/09:30pm 12.3 9.4 8.2 76 2.0 NW 13 19 7 10 1021.1 1021.1 0.0
22/09:00pm 12.6 9.0 8.3 75 2.1 NW 17 22 9 12 1021.1 1021.1 0.0
22/08:30pm 12.5 9.2 8.2 75 2.1 NNW 15 19 8 10 1021.0 1021.0 0.0
22/08:00pm 12.8 9.1 8.1 73 2.3 NW 17 24 9 13 1020.8 1020.8 0.0
22/07:30pm 12.7 9.1 8.2 74 2.2 NW 17 22 9 12 1020.7 1020.7 0.0
22/07:00pm 11.7 8.7 7.8 77 1.9 NW 13 17 7 9 1020.7 1020.7 0.0
22/06:30pm 11.9 8.6 8.0 77 1.9 NW 15 19 8 10 1020.6 1020.6 0.0
22/06:00pm 13.0 8.6 7.5 69 2.7 NNW 20 30 11 16 1020.2 1020.2 0.0
22/05:30pm 13.5 9.2 7.7 68 2.8 NNW 20 30 11 16 1020.1 1020.1 0.0
22/05:00pm 14.3 8.9 7.8 65 3.2 NW 26 39 14 21 1020.1 1020.1 0.0
22/04:30pm 15.0 9.4 7.1 59 3.9 NW 26 37 14 20 1019.9 1019.9 0.0
22/04:00pm 15.8 10.1 6.5 54 4.5 NW 26 37 14 20 1019.7 1019.7 0.0
22/03:30pm 16.1 9.7 6.8 54 4.6 WNW 30 41 16 22 1019.5 1019.5 0.0
22/03:00pm 16.3 10.4 5.9 50 5.0 WNW 26 37 14 20 1019.4 1019.4 0.0
22/02:30pm 16.7 10.5 6.2 50 5.1 WNW 28 41 15 22 1019.4 1019.4 0.0
22/02:00pm 16.9 11.7 5.5 47 5.5 WNW 22 32 12 17 1019.3 1019.3 0.0
22/01:30pm 16.6 11.1 6.1 50 5.1 WNW 24 33 13 18 1019.5 1019.5 0.0
22/01:00pm 16.3 11.0 6.7 53 4.7 WNW 24 33 13 18 1019.9 1019.9 0.0
22/12:30pm 16.4 11.7 7.6 56 4.4 WNW 22 30 12 16 1020.2 1020.2 0.0
22/12:00pm 16.1 11.4 7.6 57 4.2 W 22 30 12 16 1020.5 1020.5 0.0
22/11:30am 15.9 11.6 7.9 59 4.0 NW 20 30 11 16 1020.6 1020.6 0.0
22/11:00am 15.2 10.4 8.7 65 3.3 NW 24 30 13 16 1020.9 1020.9 0.0
22/10:30am 14.6 10.0 8.1 65 3.2 NNW 22 32 12 17 1020.9 1020.9 0.0
22/10:00am 13.1 8.4 7.8 70 2.6 NW 22 33 12 18 1021.1 1021.1 0.0
22/09:30am 13.4 9.6 7.4 67 2.9 WNW 17 26 9 14 1021.4 1021.4 0.0
22/09:00am 13.0 11.2 8.1 72 2.4 N 7 9 4 5 1021.3 1021.3 0.0
22/08:30am 11.7 9.3 7.2 74 2.2 NW 9 11 5 6 1021.3 1021.3 0.0
22/08:00am 11.5 9.1 6.8 73 2.2 NNW 9 13 5 7 1020.8 1020.8 0.0
22/07:30am 11.4 8.5 6.7 73 2.2 WNW 11 17 6 9 1020.5 1020.5 0.0
22/07:00am 10.7 7.6 7.2 79 1.7 WNW 13 19 7 10 1020.2 1020.2 0.0
22/06:30am 10.6 7.1 7.3 80 1.6 WNW 15 17 8 9 1019.9 1019.9 0.0
22/06:00am 10.2 7.5 7.3 82 1.4 WNW 11 13 6 7 1019.6 1019.6 0.0
22/05:30am 10.9 7.9 7.8 81 1.5 W 13 17 7 9 1019.4 1019.4 0.0
22/05:00am 11.1 6.1 8.1 82 1.5 WSW 24 33 13 18 1019.2 1019.2 0.0
22/04:30am 11.2 7.9 8.1 81 1.5 WNW 15 20 8 11 1018.9 1018.9 0.0
22/04:00am 11.3 7.7 8.2 81 1.5 W 17 24 9 13 1018.7 1018.7 0.0
22/03:30am 11.0 7.7 8.1 82 1.4 W 15 17 8 9 1018.4 1018.4 0.0
22/03:00am 11.1 8.2 8.1 82 1.5 WNW 13 17 7 9 1018.3 1018.3 0.0
22/02:30am 11.0 8.1 8.2 83 1.4 WNW 13 17 7 9 1018.3 1018.3 0.0
22/02:00am 11.3 8.1 8.5 83 1.4 W 15 20 8 11 1018.3 1018.3 0.0
22/01:30am 11.4 7.5 8.6 83 1.4 W 19 24 10 13 1018.4 1018.4 0.0
22/01:00am 11.9 8.1 8.9 82 1.5 WSW 19 26 10 14 1018.4 1018.4 0.0
22/12:30am 12.0 9.0 9.2 83 1.4 W 15 19 8 10 1018.3 1018.3 0.0
22/12:00am 11.9 8.4 8.9 82 1.5 W 17 22 9 12 1018.3 1018.3 0.0
 
Date/Time
CST
Temp
°C
App
Temp
°C
Dew
Point
°C
Rel
Hum
%
Delta-T
°C
Wind Press
QNH
hPa
Press
MSL
hPa
Rain since
9am
mm
Dir  Spd
km/h
Gust
km/h
Spd
kts
Gust
kts
21/11:30pm 11.1 9.1 8.8 86 1.1 WNW 9 11 5 6 1018.1 1018.1 0.0
21/11:00pm 11.0 7.9 8.8 86 1.1 W 15 19 8 10 1018.1 1018.1 0.0
21/10:30pm 9.6 6.9 7.4 86 1.0 WNW 11 15 6 8 1017.9 1017.9 0.0
21/10:00pm 9.2 6.8 6.8 85 1.1 NW 9 11 5 6 1017.9 1017.9 0.0
21/09:30pm 9.7 7.7 7.1 84 1.2 NNW 7 9 4 5 1017.6 1017.6 0.0
21/09:00pm 9.9 7.6 7.5 85 1.1 NW 9 11 5 6 1017.4 1017.4 0.0
21/08:30pm 10.1 7.8 7.5 84 1.2 WNW 9 11 5 6 1017.1 1017.1 0.0
21/08:00pm 10.8 8.3 8.0 83 1.4 W 11 13 6 7 1016.6 1016.6 0.0
21/07:30pm 10.8 8.3 8.0 83 1.4 WSW 11 17 6 9 1016.2 1016.2 0.0
21/07:00pm 11.3 7.6 8.0 80 1.6 SW 17 20 9 11 1015.7 1015.7 0.0
21/06:30pm 11.2 7.0 8.1 81 1.5 SW 20 26 11 14 1015.5 1015.5 0.0
21/06:00pm 11.1 6.8 7.8 80 1.6 SW 20 24 11 13 1014.9 1014.9 0.0
21/05:30pm 11.1 6.8 7.8 80 1.6 SSW 20 24 11 13 1014.5 1014.5 0.0
21/05:00pm 11.1 5.9 7.2 77 1.9 SSW 24 30 13 16 1013.9 1013.9 0.0
21/04:30pm 11.3 5.4 7.6 78 1.8 SSW 28 32 15 17 1013.3 1013.3 0.0
21/04:00pm 11.1 5.5 7.0 76 2.0 SSW 26 30 14 16 1013.1 1013.1 0.0
21/03:30pm 11.7 6.1 7.2 74 2.2 SW 26 30 14 16 1012.5 1012.5 0.0
21/03:00pm 11.4 6.2 7.1 75 2.1 SSW 24 28 13 15 1011.9 1011.9 0.0
21/02:30pm 11.2 6.5 7.7 79 1.7 SW 22 30 12 16 1011.6 1011.6 0.0
21/02:00pm 11.6 7.3 7.7 77 1.9 SW 20 26 11 14 1011.2 1011.2 0.0
21/01:30pm 12.0 9.0 7.9 76 2.0 SW 13 19 7 10 1010.8 1010.8 0.0
21/01:00pm 11.6 8.6 7.7 77 1.9 SW 13 15 7 8 1010.6 1010.6 0.0
21/12:30pm 11.1 9.0 6.8 75 2.0 SSE 7 9 4 5 1010.3 1010.3 0.0
21/12:00pm 10.6 8.2 6.9 78 1.8 SE 9 11 5 6 1010.3 1010.3 0.0
21/11:30am 10.2 7.5 7.3 82 1.4 SE 11 13 6 7 1010.1 1010.1 0.0
21/11:00am 9.8 7.9 6.9 82 1.4 E 6 7 3 4 1010.1 1010.1 0.0
21/10:30am 9.3 6.8 6.6 83 1.3 ENE 9 13 5 7 1009.6 1009.6 0.0
21/10:00am 8.8 5.1 6.4 85 1.1 NE 15 19 8 10 1009.2 1009.2 0.0
21/09:30am 8.3 4.2 6.1 86 1.0 ENE 17 20 9 11 1009.1 1009.1 0.0
21/09:00am 8.1 3.9 5.9 86 1.0 ENE 17 22 9 12 1009.1 1009.1 6.6
21/08:30am 7.5 3.2 5.3 86 1.0 NE 17 24 9 13 1008.7 1008.7 6.6
21/08:00am 7.3 2.4 5.0 85 1.0 NE 20 28 11 15 1008.2 1008.2 6.6
21/07:30am 7.3 1.2 4.8 84 1.1 NE 26 33 14 18 1007.8 1007.8 6.4
21/07:00am 7.2 1.5 4.9 85 1.0 NE 24 30 13 16 1007.5 1007.5 6.4
21/06:30am 7.3 2.0 5.1 86 1.0 NE 22 28 12 15 1007.5 1007.5 6.4
21/06:00am 7.0 2.6 4.8 86 1.0 NE 17 22 9 12 1007.4 1007.4 6.4
21/05:30am 7.4 2.7 5.0 85 1.1 NE 19 24 10 13 1007.3 1007.3 6.4
21/05:00am 7.5 3.2 5.1 85 1.1 NNE 17 20 9 11 1007.4 1007.4 6.4
21/04:30am 7.4 3.0 4.9 84 1.1 NNE 17 24 9 13 1007.6 1007.6 6.0
21/04:00am 7.7 2.7 4.7 81 1.3 NNE 20 28 11 15 1007.8 1007.8 5.6
21/03:30am 7.8 2.0 4.6 80 1.4 NE 24 32 13 17 1007.8 1007.8 5.6
21/03:00am 8.0 1.2 4.9 81 1.4 NE 30 44 16 24 1007.8 1007.8 5.6
21/02:30am 8.1 0.7 4.9 80 1.4 NNE 33 44 18 24 1008.1 1008.1 5.6
21/02:00am 7.9 0.5 4.8 81 1.4 NNE 33 44 18 24 1008.4 1008.4 5.6
21/01:30am 7.8 0.4 4.9 82 1.3 NNE 33 44 18 24 1008.7 1008.7 5.6
21/01:00am 7.7 0.9 5.3 85 1.1 NNE 30 39 16 21 1009.2 1009.2 5.6
21/12:30am 7.8 0.5 5.4 85 1.1 NE 33 44 18 24 1009.7 1009.7 5.6
21/12:00am 7.6 0.8 5.2 85 1.1 NE 30 43 16 23 1010.5 1010.5 5.6
 
Date/Time
CST
Temp
°C
App
Temp
°C
Dew
Point
°C
Rel
Hum
%
Delta-T
°C
Wind Press
QNH
hPa
Press
MSL
hPa
Rain since
9am
mm
Dir  Spd
km/h
Gust
km/h
Spd
kts
Gust
kts
20/11:30pm 8.0 0.7 5.6 85 1.1 NE 33 44 18 24 1010.8 1010.8 5.6

Latest Capital City Observations: Canberra | Sydney | Melbourne | Brisbane | Adelaide | Perth | Hobart | Darwin

Other Formats:

Comma delimited format used in spreadsheet applications
http://www.bom.gov.au/fwo/IDS60901/IDS60901.94677.axf

JavaScript Object Notation format (JSON) in row-major order
http://www.bom.gov.au/fwo/IDS60901/IDS60901.94677.json